首页
METAR-TAF:

METAR-TAF

机场 :

Shaw Air Force Base

Sumter, 南卡罗来纳州, 美国

纬度: 33-58N, 经度: 080-29W, 海拔: 74米

当前天气观测

该预报发布于13分钟前的04:56 UTC
风速13节,风向西南,有时为19节阵风
温度 17°C
湿度 77%
气压 1018 hPa
能見度: 16.1公里
少量云层高于3200英尺
散云层高于4600英尺
散云层高于5500英尺
多云层高于8000英尺

METAR: KSSC 190456Z AUTO 22013G19KT 10SM FEW032 SCT046 SCT055 BKN080 17/13 A3005 RMK AO2 SLP177 T01680125 401690015 $

时间: 00:09 (05:09 UTC)

预报

该预报发布于5小时和32分钟前的23:37 UTC
预报有效从17日的 23点(UTC)到 18日的 22点(UTC)
风速6节,风向东转东北
能见度10公里或以上
阴天层高于15000英尺
成为
从 18日的 03点(UTC)到 18日的 04点(UTC)
风速7节,风向东转东北
能见度10公里或以上
多云层高于12000英尺
阴天层高于20000英尺
成为
从 18日的 14点(UTC)到 18日的 15点(UTC)
风速8节,风向东南
能见度10公里或以上
多云层高于3500英尺
阴天层高于10000英尺

TAF: KSSC 172337Z 1723/1822 06006KT 9999 OVC150 QNH3060INS BECMG 1803/1804 07007KT 9999 BKN120 OVC200 QNH3055INS BECMG 1814/1815 14008KT 9999 BKN035 OVC100 QNH3045INS TX11/1723Z TN01/1810Z LAST NO AMDS AFT 1800Z NEXT 2108Z

超过4000个机场的气象观测和天气预报(METAR&TAF报告)。

可查询的气象台以黄色和红色小点在地图上表示。

将鼠标移到小点上方,可查看气象台名称。

然后点击查看天气观测和预报。

如需切换地图:点击带黑十字的绿色按钮放大地图;点击带横线的绿色按钮缩小地图;或者点击绿色箭头查看邻近地区的地图。


METAR-TAF: